Time;durP1;ratioP1;P1;durP2;ratioP2;P2;SDS_P1;SDS_P2;PMS_P1;PMS_P2;Temp;Humidity;BMP_temperature;BMP_pressure;BME280_temperature;BME280_humidity;BME280_pressure;Samples;Min_cycle;Max_cycle;Signal;HPM_P1;HPM_P2
2023/07/08 00:00:52;;;;;;;7.38;3.80;;;16.50;99.90;;;;;;5003670;28;20037;-80
2023/07/08 00:03:19;;;;;;;8.52;4.13;;;16.40;99.90;;;;;;5021360;28;20473;-80
2023/07/08 00:05:46;;;;;;;6.07;4.15;;;16.40;99.90;;;;;;5015900;28;20056;-80
2023/07/08 00:08:14;;;;;;;9.25;4.32;;;16.40;99.90;;;;;;5020206;28;20041;-80
2023/07/08 00:10:40;;;;;;;7.32;4.35;;;16.30;99.90;;;;;;5049109;28;20121;-80
2023/07/08 00:13:07;;;;;;;5.60;4.15;;;16.30;99.90;;;;;;5017742;28;20042;-79
2023/07/08 00:15:33;;;;;;;7.95;4.30;;;16.30;99.90;;;;;;5000336;28;20073;-80
2023/07/08 00:17:59;;;;;;;6.53;4.63;;;16.20;99.90;;;;;;5022629;28;20439;-80
2023/07/08 00:20:40;;;;;;;6.50;3.88;;;16.20;99.90;;;;;;5024678;28;20090;-80
2023/07/08 00:23:08;;;;;;;6.97;4.00;;;16.10;99.90;;;;;;5018734;28;20461;-80
2023/07/08 00:25:33;;;;;;;8.40;4.13;;;16.10;99.90;;;;;;5025174;28;20076;-80
2023/07/08 00:27:59;;;;;;;7.32;4.10;;;16.10;99.90;;;;;;5017159;28;20136;-80
2023/07/08 00:30:28;;;;;;;7.55;4.20;;;16.10;99.90;;;;;;5033824;28;20041;-80
2023/07/08 00:32:54;;;;;;;6.97;4.05;;;16.00;99.90;;;;;;5023718;28;20562;-80
2023/07/08 00:35:32;;;;;;;7.63;4.47;;;16.00;99.90;;;;;;5039940;28;20048;-80
2023/07/08 00:38:12;;;;;;;9.70;4.18;;;15.90;99.90;;;;;;5036319;28;20878;-80
2023/07/08 00:41:03;;;;;;;8.50;4.50;;;15.90;99.90;;;;;;5022472;28;20057;-80
2023/07/08 00:43:40;;;;;;;7.43;4.28;;;15.80;99.90;;;;;;5017477;28;20048;-80
2023/07/08 00:46:25;;;;;;;10.13;3.90;;;15.80;99.90;;;;;;5016099;28;20044;-80
2023/07/08 00:48:52;;;;;;;8.20;4.25;;;15.80;99.90;;;;;;5031495;28;20124;-80
2023/07/08 00:51:20;;;;;;;8.25;4.22;;;15.70;99.90;;;;;;5000885;28;20038;-80
2023/07/08 00:53:45;;;;;;;8.68;4.90;;;15.70;99.90;;;;;;5018373;28;20041;-80
2023/07/08 00:56:15;;;;;;;8.27;4.20;;;15.70;99.90;;;;;;5002710;28;20087;-80
2023/07/08 00:58:49;;;;;;;7.47;4.32;;;15.70;99.90;;;;;;5030558;28;20056;-80
2023/07/08 01:01:15;;;;;;;7.82;4.53;;;15.70;99.90;;;;;;5048887;28;20197;-80
2023/07/08 01:03:49;;;;;;;6.53;3.92;;;15.70;99.90;;;;;;5017968;28;20414;-80
2023/07/08 01:06:16;;;;;;;8.95;4.47;;;15.70;99.90;;;;;;5020734;28;20678;-80
2023/07/08 01:08:42;;;;;;;7.28;4.20;;;15.70;99.90;;;;;;5019873;28;20373;-80
2023/07/08 01:11:08;;;;;;;9.07;4.15;;;15.60;99.90;;;;;;5040342;28;20028;-80
2023/07/08 01:13:40;;;;;;;6.47;3.90;;;15.60;99.90;;;;;;5008433;28;20059;-80
2023/07/08 01:16:06;;;;;;;8.15;4.70;;;15.60;99.90;;;;;;5019741;28;20516;-80
2023/07/08 01:18:33;;;;;;;7.20;4.53;;;15.60;99.90;;;;;;5037118;28;20104;-80
2023/07/08 01:21:28;;;;;;;8.82;4.55;;;15.60;99.90;;;;;;5022316;28;20036;-80
2023/07/08 01:23:54;;;;;;;7.70;3.85;;;15.50;99.90;;;;;;5046980;28;20098;-79
2023/07/08 01:26:24;;;;;;;7.95;4.65;;;15.50;99.90;;;;;;5022528;28;20037;-79
2023/07/08 01:28:52;;;;;;;7.25;4.05;;;15.50;99.90;;;;;;5041281;28;20045;-80
2023/07/08 01:31:19;;;;;;;6.55;4.40;;;15.50;99.90;;;;;;5021020;28;20090;-80
2023/07/08 01:33:45;;;;;;;7.60;4.43;;;15.40;99.90;;;;;;5019934;28;20281;-80
2023/07/08 01:36:11;;;;;;;9.98;5.00;;;15.30;99.90;;;;;;5047315;28;20631;-79
2023/07/08 01:38:39;;;;;;;7.80;4.35;;;15.30;99.90;;;;;;5020126;28;20275;-80
2023/07/08 01:41:10;;;;;;;9.48;4.60;;;15.30;99.90;;;;;;5019503;28;20071;-79
2023/07/08 01:43:36;;;;;;;7.47;4.80;;;15.20;99.90;;;;;;5018525;28;20094;-80
2023/07/08 01:46:02;;;;;;;6.80;4.40;;;15.20;99.90;;;;;;5032218;28;20041;-80
2023/07/08 01:48:33;;;;;;;9.02;4.80;;;15.10;99.90;;;;;;5020721;28;20401;-80
2023/07/08 01:51:02;;;;;;;8.50;4.50;;;15.10;99.90;;;;;;5022222;28;20029;-80
2023/07/08 01:53:35;;;;;;;7.60;4.35;;;15.10;99.90;;;;;;5008089;28;20096;-80
2023/07/08 01:56:01;;;;;;;9.38;4.72;;;15.10;99.90;;;;;;5031279;28;20109;-80
2023/07/08 01:58:27;;;;;;;7.95;4.57;;;15.00;99.90;;;;;;5048370;28;20485;-79
2023/07/08 02:00:54;;;;;;;8.77;4.63;;;15.00;99.90;;;;;;5020127;28;20041;-80
2023/07/08 02:03:20;;;;;;;7.40;4.80;;;15.00;99.90;;;;;;5029154;28;20076;-80
2023/07/08 02:05:46;;;;;;;7.68;4.57;;;15.00;99.90;;;;;;5027173;28;20052;-80
2023/07/08 02:08:12;;;;;;;7.88;4.28;;;14.90;99.90;;;;;;5027817;28;20037;-80
2023/07/08 02:10:40;;;;;;;9.57;4.68;;;14.90;99.90;;;;;;5032123;28;20034;-79
2023/07/08 02:13:06;;;;;;;7.82;5.18;;;14.90;99.90;;;;;;5024142;28;20037;-80
2023/07/08 02:15:32;;;;;;;7.40;4.63;;;14.90;99.90;;;;;;5024153;28;20036;-80
2023/07/08 02:17:57;;;;;;;6.70;4.75;;;14.80;99.90;;;;;;5008808;28;20396;-80
2023/07/08 02:20:23;;;;;;;9.40;5.35;;;14.80;99.90;;;;;;5025949;28;20308;-79
2023/07/08 02:22:49;;;;;;;8.77;5.00;;;14.80;99.90;;;;;;5049082;28;20507;-80
2023/07/08 02:25:15;;;;;;;8.55;4.93;;;14.70;99.90;;;;;;5024542;28;20055;-79
2023/07/08 02:27:41;;;;;;;9.10;4.93;;;14.70;99.90;;;;;;5020331;28;20120;-80
2023/07/08 02:30:08;;;;;;;7.80;4.65;;;14.70;99.90;;;;;;5009114;28;20124;-79
2023/07/08 02:32:38;;;;;;;9.27;5.07;;;14.60;99.90;;;;;;5005433;28;20056;-80
2023/07/08 02:35:05;;;;;;;7.88;4.88;;;14.70;99.90;;;;;;5051767;28;20419;-80
2023/07/08 02:37:32;;;;;;;7.38;4.70;;;14.60;99.90;;;;;;5005145;28;20046;-80
2023/07/08 02:39:57;;;;;;;7.20;5.18;;;14.60;99.90;;;;;;5010909;28;20037;-80
2023/07/08 02:42:23;;;;;;;9.70;5.43;;;14.60;99.90;;;;;;5025110;28;20049;-80
2023/07/08 02:44:49;;;;;;;9.02;4.85;;;14.50;99.90;;;;;;5022798;28;20131;-80
2023/07/08 02:47:14;;;;;;;6.50;5.13;;;14.50;99.90;;;;;;5035091;28;20123;-80
2023/07/08 02:49:40;;;;;;;6.80;5.03;;;14.50;99.90;;;;;;5021597;28;20038;-80
2023/07/08 02:52:06;;;;;;;8.27;4.60;;;14.50;99.90;;;;;;5021641;28;20669;-80
2023/07/08 02:54:31;;;;;;;10.00;5.60;;;14.40;99.90;;;;;;5026740;28;20033;-80
2023/07/08 02:56:57;;;;;;;8.95;5.55;;;14.40;99.90;;;;;;5026307;28;20389;-80
2023/07/08 02:59:23;;;;;;;7.35;4.95;;;14.40;99.90;;;;;;5010833;28;20750;-80
2023/07/08 03:01:50;;;;;;;7.43;5.30;;;14.40;99.90;;;;;;5027597;28;20043;-80
2023/07/08 03:04:16;;;;;;;9.05;5.10;;;14.40;99.90;;;;;;5008412;28;20041;-80
2023/07/08 03:06:45;;;;;;;8.43;4.90;;;14.40;99.90;;;;;;4999161;28;20045;-80
2023/07/08 03:09:12;;;;;;;6.20;4.97;;;14.40;99.90;;;;;;5024322;28;20052;-79
2023/07/08 03:11:39;;;;;;;8.70;5.40;;;14.40;99.90;;;;;;5022687;28;20036;-80
2023/07/08 03:14:06;;;;;;;6.85;5.28;;;14.30;99.90;;;;;;5024766;28;20079;-79
2023/07/08 03:16:31;;;;;;;6.82;5.38;;;14.30;99.90;;;;;;5050435;28;20029;-79
2023/07/08 03:18:57;;;;;;;7.53;5.40;;;14.30;99.90;;;;;;5021140;28;20037;-80
2023/07/08 03:21:23;;;;;;;11.40;5.53;;;14.30;99.90;;;;;;5026535;28;20326;-79
2023/07/08 03:23:51;;;;;;;7.20;4.75;;;14.40;99.90;;;;;;5021203;28;20480;-80
2023/07/08 03:26:20;;;;;;;9.57;5.25;;;14.40;99.90;;;;;;5028219;28;20033;-80
2023/07/08 03:28:46;;;;;;;6.93;5.38;;;14.30;99.90;;;;;;5024863;28;20034;-80
2023/07/08 03:31:13;;;;;;;8.05;5.72;;;14.40;99.90;;;;;;5019591;28;20449;-79
2023/07/08 03:33:39;;;;;;;10.65;5.45;;;14.40;99.90;;;;;;5026297;28;20387;-80
2023/07/08 03:36:22;;;;;;;9.07;6.05;;;14.40;99.90;;;;;;5026423;28;20044;-79
2023/07/08 03:38:52;;;;;;;9.73;5.70;;;14.40;99.90;;;;;;5018588;28;20047;-80
2023/07/08 03:41:18;;;;;;;8.43;5.93;;;14.50;99.90;;;;;;5021982;28;20544;-80
2023/07/08 03:43:44;;;;;;;10.30;6.10;;;14.50;99.90;;;;;;5016088;28;20050;-80
2023/07/08 03:46:14;;;;;;;8.60;5.55;;;14.60;99.90;;;;;;5025891;28;20052;-80
2023/07/08 03:48:40;;;;;;;9.18;5.75;;;14.60;99.90;;;;;;5024696;28;20045;-80
2023/07/08 03:51:21;;;;;;;9.48;6.00;;;14.60;99.90;;;;;;5041119;28;20033;-80
2023/07/08 03:53:47;;;;;;;9.32;5.82;;;14.70;99.90;;;;;;5018890;28;20087;-80
2023/07/08 03:56:13;;;;;;;10.82;5.63;;;14.70;99.90;;;;;;5029275;28;20037;-80
2023/07/08 03:58:39;;;;;;;6.82;5.78;;;14.80;99.90;;;;;;5010598;28;20049;-80
2023/07/08 04:01:09;;;;;;;10.77;6.88;;;14.80;99.90;;;;;;5024620;28;20522;-80
2023/07/08 04:03:35;;;;;;;10.15;5.60;;;14.90;99.90;;;;;;5021762;28;20053;-80
2023/07/08 04:06:01;;;;;;;9.82;6.53;;;14.90;99.90;;;;;;5019772;28;20041;-80
2023/07/08 04:08:26;;;;;;;7.47;5.57;;;15.00;99.90;;;;;;5048050;28;20041;-80
2023/07/08 04:10:52;;;;;;;11.23;6.28;;;15.10;99.90;;;;;;5025579;28;20153;-80
2023/07/08 04:13:17;;;;;;;8.20;5.75;;;15.10;99.90;;;;;;5029523;28;20040;-80
2023/07/08 04:15:58;;;;;;;10.35;5.88;;;15.20;99.90;;;;;;5000586;28;20330;-80
2023/07/08 04:18:27;;;;;;;7.70;5.70;;;15.30;99.90;;;;;;5034372;28;20037;-80
2023/07/08 04:20:52;;;;;;;7.05;5.63;;;15.30;99.90;;;;;;5002706;28;20037;-80
2023/07/08 04:23:19;;;;;;;7.63;6.03;;;15.40;99.90;;;;;;5017169;28;20049;-80
2023/07/08 04:25:47;;;;;;;9.07;6.07;;;15.50;99.90;;;;;;5021854;28;20340;-80
2023/07/08 04:28:13;;;;;;;8.90;5.47;;;15.50;99.90;;;;;;5002230;28;20036;-80
2023/07/08 04:30:41;;;;;;;8.30;6.05;;;15.60;99.90;;;;;;5014370;28;20493;-80
2023/07/08 04:33:14;;;;;;;9.27;5.88;;;15.70;99.90;;;;;;5045442;28;20123;-80
2023/07/08 04:35:41;;;;;;;9.43;6.13;;;15.80;99.90;;;;;;5024775;28;20041;-80
2023/07/08 04:38:19;;;;;;;8.50;6.22;;;15.90;99.90;;;;;;5048789;28;20381;-80
2023/07/08 04:40:44;;;;;;;8.20;6.00;;;16.00;99.90;;;;;;5004349;28;20342;-80
2023/07/08 04:43:14;;;;;;;10.63;6.40;;;16.00;99.90;;;;;;5017263;28;20332;-80
2023/07/08 04:45:43;;;;;;;9.18;6.18;;;16.10;99.90;;;;;;5023793;28;20444;-80
2023/07/08 04:48:14;;;;;;;11.02;6.15;;;16.20;99.90;;;;;;5028378;28;20045;-80
2023/07/08 04:50:44;;;;;;;9.80;5.72;;;16.30;99.90;;;;;;5020571;28;20057;-80
2023/07/08 04:53:11;;;;;;;9.80;5.82;;;16.40;99.90;;;;;;5016270;28;20041;-80
2023/07/08 04:55:40;;;;;;;9.95;6.05;;;16.40;99.90;;;;;;5024616;28;20400;-80
2023/07/08 04:58:06;;;;;;;11.02;5.90;;;16.50;99.90;;;;;;5021200;28;20060;-80
2023/07/08 05:00:31;;;;;;;8.18;5.93;;;16.60;99.90;;;;;;5032436;28;20073;-80
2023/07/08 05:02:57;;;;;;;8.80;5.88;;;16.70;99.90;;;;;;5015451;28;20141;-79
2023/07/08 05:05:23;;;;;;;11.52;6.22;;;16.70;99.90;;;;;;5031356;28;20165;-80
2023/07/08 05:07:49;;;;;;;9.68;5.80;;;16.80;99.90;;;;;;5046350;28;20477;-80
2023/07/08 05:10:18;;;;;;;8.23;6.00;;;16.90;99.90;;;;;;5023619;28;20058;-80
2023/07/08 05:12:45;;;;;;;7.72;5.90;;;17.00;99.90;;;;;;5022390;28;20361;-80
2023/07/08 05:15:12;;;;;;;10.75;6.13;;;17.10;99.90;;;;;;5023706;28;20037;-80
2023/07/08 05:17:39;;;;;;;8.38;5.68;;;17.20;99.90;;;;;;5018213;28;20061;-80
2023/07/08 05:20:07;;;;;;;12.93;6.78;;;17.20;99.90;;;;;;5050488;28;20033;-80
2023/07/08 05:22:34;;;;;;;9.98;5.15;;;17.40;99.90;;;;;;5033844;28;20041;-80
2023/07/08 05:25:00;;;;;;;9.18;5.65;;;17.40;99.90;;;;;;5022856;28;20040;-80
2023/07/08 05:27:30;;;;;;;10.48;5.93;;;17.50;99.90;;;;;;5018351;28;20042;-80
2023/07/08 05:29:55;;;;;;;8.27;5.63;;;17.50;99.90;;;;;;5031317;28;20148;-80
2023/07/08 05:32:21;;;;;;;7.72;5.38;;;17.60;99.90;;;;;;5023341;28;20148;-80
2023/07/08 05:34:47;;;;;;;10.07;5.90;;;17.70;99.90;;;;;;5001602;28;20116;-79
2023/07/08 05:37:13;;;;;;;7.75;5.28;;;17.90;99.90;;;;;;5017123;28;20044;-80
2023/07/08 05:39:40;;;;;;;10.13;5.07;;;17.90;99.90;;;;;;5048344;28;20051;-80
2023/07/08 05:42:06;;;;;;;8.57;5.78;;;18.00;99.90;;;;;;5018399;28;20582;-80
2023/07/08 05:44:32;;;;;;;6.35;5.18;;;18.10;99.90;;;;;;5036545;28;20089;-80
2023/07/08 05:46:57;;;;;;;10.48;5.88;;;18.10;99.90;;;;;;5020935;28;20446;-80
2023/07/08 05:49:23;;;;;;;11.13;4.78;;;18.20;99.90;;;;;;5019995;28;20033;-80
2023/07/08 05:51:49;;;;;;;11.10;5.70;;;18.30;99.90;;;;;;5021512;28;20688;-80
2023/07/08 05:54:15;;;;;;;8.25;4.90;;;18.40;99.90;;;;;;5018662;28;20425;-80
2023/07/08 05:56:40;;;;;;;8.27;5.10;;;18.50;99.90;;;;;;5023066;28;20037;-80
2023/07/08 05:59:06;;;;;;;10.07;4.93;;;18.50;99.90;;;;;;5014733;28;20046;-80
2023/07/08 06:01:32;;;;;;;5.70;4.78;;;18.70;99.90;;;;;;5018601;28;20042;-80
2023/07/08 06:03:59;;;;;;;10.15;4.97;;;18.70;99.90;;;;;;5001962;28;20590;-80
2023/07/08 06:06:26;;;;;;;8.60;5.85;;;18.80;99.90;;;;;;5022813;28;20037;-80
2023/07/08 06:08:52;;;;;;;6.10;5.13;;;18.90;99.90;;;;;;5015103;28;20253;-80
2023/07/08 06:11:18;;;;;;;10.10;5.30;;;19.10;99.90;;;;;;5017526;28;20034;-80
2023/07/08 06:13:44;;;;;;;6.00;4.85;;;19.00;99.90;;;;;;5021384;28;20388;-80
2023/07/08 06:16:09;;;;;;;6.80;5.00;;;19.10;99.90;;;;;;5022070;28;20040;-80
2023/07/08 06:18:35;;;;;;;5.78;4.70;;;19.20;99.90;;;;;;5021146;28;20235;-80
2023/07/08 06:21:01;;;;;;;6.22;4.85;;;19.30;99.90;;;;;;5024022;28;20128;-80
2023/07/08 06:23:28;;;;;;;5.88;4.45;;;19.40;99.90;;;;;;5016191;28;20049;-80
2023/07/08 06:25:54;;;;;;;6.57;4.60;;;19.50;99.90;;;;;;5020856;28;20296;-80
2023/07/08 06:28:20;;;;;;;7.22;4.47;;;19.50;99.90;;;;;;5030925;28;20309;-79
2023/07/08 06:30:46;;;;;;;4.68;4.03;;;19.70;99.90;;;;;;5000926;28;20393;-80
2023/07/08 06:33:12;;;;;;;7.72;4.53;;;19.80;99.90;;;;;;5037744;28;20078;-80
2023/07/08 06:35:38;;;;;;;7.97;4.35;;;19.90;99.90;;;;;;5029553;28;20660;-80
2023/07/08 06:38:05;;;;;;;8.23;4.55;;;20.00;99.90;;;;;;5020131;28;20480;-80
2023/07/08 06:40:32;;;;;;;7.95;4.68;;;19.90;99.90;;;;;;5017677;28;20391;-80
2023/07/08 06:42:58;;;;;;;5.95;4.05;;;20.10;99.90;;;;;;5020793;28;20045;-80
2023/07/08 06:45:23;;;;;;;6.28;4.30;;;20.30;99.90;;;;;;5047034;28;20488;-79
2023/07/08 06:47:49;;;;;;;7.95;4.57;;;20.40;99.90;;;;;;5018718;28;20094;-80
2023/07/08 06:50:15;;;;;;;5.85;4.28;;;20.50;99.90;;;;;;5018296;28;20116;-80
2023/07/08 06:52:40;;;;;;;6.13;3.72;;;20.60;99.90;;;;;;5032576;28;20034;-80
2023/07/08 06:55:09;;;;;;;5.00;4.00;;;20.70;99.90;;;;;;5050022;28;20091;-80
2023/07/08 06:57:35;;;;;;;7.47;4.28;;;20.70;99.90;;;;;;5026275;28;20037;-80
2023/07/08 07:00:02;;;;;;;5.55;3.97;;;20.80;99.90;;;;;;5003335;28;20048;-80
2023/07/08 07:02:27;;;;;;;7.50;4.32;;;20.90;99.90;;;;;;5025983;28;20042;-80
2023/07/08 07:04:55;;;;;;;6.80;3.90;;;21.00;99.90;;;;;;5029579;28;20041;-80
2023/07/08 07:07:20;;;;;;;5.75;4.00;;;21.10;99.90;;;;;;5024059;28;20626;-80
2023/07/08 07:09:46;;;;;;;6.75;4.47;;;21.30;99.90;;;;;;5036167;28;20048;-80
2023/07/08 07:12:11;;;;;;;7.13;4.13;;;21.40;99.90;;;;;;5034205;28;20480;-80
2023/07/08 07:14:37;;;;;;;6.70;4.40;;;21.30;99.90;;;;;;5022652;28;20041;-80
2023/07/08 07:17:04;;;;;;;5.53;4.00;;;21.30;99.90;;;;;;5009488;28;20049;-80
2023/07/08 07:19:29;;;;;;;8.23;3.83;;;21.50;99.90;;;;;;5024827;28;20572;-80
2023/07/08 07:21:57;;;;;;;5.22;3.60;;;21.50;99.90;;;;;;5025475;28;20661;-80
2023/07/08 07:24:23;;;;;;;6.75;3.95;;;21.60;99.90;;;;;;5022899;28;20036;-80
2023/07/08 07:26:49;;;;;;;7.10;4.03;;;21.60;99.90;;;;;;5022152;28;20056;-80
2023/07/08 07:29:17;;;;;;;5.13;3.65;;;21.70;99.90;;;;;;5024026;28;20033;-80
2023/07/08 07:31:43;;;;;;;4.65;3.58;;;21.70;99.90;;;;;;5024516;28;20041;-80
2023/07/08 07:34:10;;;;;;;6.57;3.97;;;21.80;99.90;;;;;;5021929;28;20032;-80
2023/07/08 07:36:36;;;;;;;8.27;3.75;;;21.90;99.90;;;;;;5004351;28;20520;-80
2023/07/08 07:39:01;;;;;;;5.55;3.42;;;22.00;99.90;;;;;;5022853;28;20045;-80
2023/07/08 07:41:27;;;;;;;7.57;3.85;;;22.20;99.90;;;;;;5028581;28;20061;-80
2023/07/08 07:43:53;;;;;;;4.65;4.15;;;22.30;99.90;;;;;;5024437;28;20053;-80
2023/07/08 07:46:19;;;;;;;6.00;3.72;;;22.40;99.90;;;;;;5023558;28;20579;-80
2023/07/08 07:48:44;;;;;;;5.60;3.47;;;22.40;99.90;;;;;;5021155;28;20133;-80
2023/07/08 07:51:10;;;;;;;6.63;3.75;;;22.50;99.90;;;;;;5024157;28;20045;-80
2023/07/08 07:53:38;;;;;;;5.53;3.85;;;22.60;99.90;;;;;;5021144;28;20048;-80
2023/07/08 07:56:04;;;;;;;5.78;3.80;;;22.80;99.90;;;;;;5022579;28;20045;-80
2023/07/08 07:58:30;;;;;;;4.93;3.67;;;22.90;99.90;;;;;;5018666;28;20111;-80
2023/07/08 08:00:56;;;;;;;4.57;3.58;;;22.90;1.90;;;;;;5020594;28;20369;-80
2023/07/08 08:03:23;;;;;;;23.42;4.80;;;23.10;99.90;;;;;;5051553;28;20033;-80
2023/07/08 08:05:49;;;;;;;7.07;3.90;;;23.00;99.90;;;;;;5021086;28;20492;-80
2023/07/08 08:08:15;;;;;;;6.45;3.50;;;23.10;99.90;;;;;;5027250;28;20568;-80
2023/07/08 08:10:43;;;;;;;4.55;3.72;;;23.10;99.90;;;;;;5005016;28;20481;-80
2023/07/08 08:13:09;;;;;;;7.25;3.35;;;23.30;99.90;;;;;;5018990;28;20103;-80
2023/07/08 08:15:35;;;;;;;6.20;4.00;;;23.40;99.90;;;;;;5033165;28;20034;-80
2023/07/08 08:18:01;;;;;;;3.90;3.20;;;23.50;99.90;;;;;;5018410;28;20052;-80
2023/07/08 08:20:28;;;;;;;5.35;3.65;;;23.60;99.90;;;;;;5016108;28;20051;-80
2023/07/08 08:22:54;;;;;;;5.05;3.28;;;23.80;99.90;;;;;;5015944;28;20068;-80
2023/07/08 08:25:21;;;;;;;5.53;3.50;;;23.90;99.90;;;;;;5022982;28;20207;-80
2023/07/08 08:27:47;;;;;;;3.97;3.30;;;24.10;99.90;;;;;;5030314;28;20095;-80
2023/07/08 08:30:13;;;;;;;7.13;3.60;;;24.10;76.90;;;;;;5017110;28;20064;-80
2023/07/08 08:32:39;;;;;;;5.20;3.60;;;24.20;1.00;;;;;;5018163;28;20448;-80
2023/07/08 08:35:05;;;;;;;6.40;3.70;;;24.30;99.90;;;;;;5033650;28;20162;-80
2023/07/08 08:37:31;;;;;;;5.88;3.22;;;24.50;99.90;;;;;;5016922;28;20049;-80
2023/07/08 08:39:57;;;;;;;4.10;3.47;;;24.60;99.90;;;;;;5021910;28;20091;-80
2023/07/08 08:42:42;;;;;;;6.25;3.50;;;24.70;99.90;;;;;;5021753;28;20056;-80
2023/07/08 08:45:11;;;;;;;4.85;3.20;;;24.70;99.90;;;;;;5018059;28;20132;-81
2023/07/08 08:47:40;;;;;;;4.45;3.40;;;25.00;99.90;;;;;;5006349;28;20029;-82
2023/07/08 08:50:24;;;;;;;4.60;3.35;;;24.90;99.90;;;;;;5019231;28;20041;-82
2023/07/08 08:52:51;;;;;;;6.30;3.47;;;25.10;1.00;;;;;;5036860;28;20037;-82
2023/07/08 08:55:17;;;;;;;4.25;3.20;;;25.30;1.00;;;;;;5001316;28;20037;-82
2023/07/08 08:58:01;;;;;;;3.65;3.05;;;25.40;99.90;;;;;;5046450;28;20037;-81
2023/07/08 09:00:50;;;;;;;5.25;3.45;;;25.50;69.70;;;;;;5003143;28;20029;-82
2023/07/08 09:03:21;;;;;;;5.25;3.08;;;25.70;99.90;;;;;;5046030;28;20132;-82
2023/07/08 09:05:47;;;;;;;5.82;3.20;;;25.80;99.90;;;;;;5005832;28;20139;-82
2023/07/08 09:08:31;;;;;;;4.53;3.20;;;25.80;99.90;;;;;;4998603;28;20040;-83
2023/07/08 09:11:41;;;;;;;4.32;2.90;;;26.00;99.90;;;;;;5040219;28;20396;-82
2023/07/08 09:14:29;;;;;;;4.28;3.30;;;26.20;85.50;;;;;;4994692;28;20447;-83
2023/07/08 09:17:19;;;;;;;5.28;3.35;;;26.20;99.90;;;;;;5005724;28;20044;-83
2023/07/08 09:19:47;;;;;;;4.47;3.08;;;26.30;99.90;;;;;;5017282;28;20322;-83
2023/07/08 09:22:34;;;;;;;6.75;3.35;;;26.30;99.90;;;;;;5024219;28;20041;-82
2023/07/08 09:25:27;;;;;;;6.88;3.10;;;26.20;1.00;;;;;;5020941;28;20033;-82
2023/07/08 09:27:53;;;;;;;4.43;2.80;;;26.60;70.70;;;;;;5019740;28;20061;-82
2023/07/08 09:30:22;;;;;;;5.03;3.70;;;26.90;99.90;;;;;;5019059;28;20026;-82
2023/07/08 09:32:48;;;;;;;5.00;3.38;;;26.80;99.90;;;;;;5028363;28;20106;-82
2023/07/08 09:35:18;;;;;;;7.03;3.20;;;26.90;99.90;;;;;;5005050;28;20037;-82
2023/07/08 09:37:46;;;;;;;5.22;3.03;;;27.10;1.00;;;;;;5016945;28;20132;-82
2023/07/08 09:40:28;;;;;;;4.50;3.50;;;27.20;1.00;;;;;;5038849;28;20123;-82
2023/07/08 09:43:01;;;;;;;6.15;3.30;;;27.40;1.00;;;;;;5021585;28;20148;-82
2023/07/08 09:45:28;;;;;;;5.43;3.47;;;27.30;1.00;;;;;;5034219;28;20041;-82
2023/07/08 09:47:56;;;;;;;4.93;3.15;;;27.40;99.90;;;;;;5018261;28;20045;-82
2023/07/08 09:50:27;;;;;;;4.72;3.42;;;27.50;99.90;;;;;;5020672;28;20083;-82
2023/07/08 09:52:57;;;;;;;6.35;3.95;;;27.60;99.90;;;;;;5046833;28;20594;-82
2023/07/08 09:55:28;;;;;;;4.28;3.03;;;27.70;99.90;;;;;;5031900;28;20102;-82
2023/07/08 09:57:58;;;;;;;4.25;3.28;;;27.80;99.90;;;;;;5023104;28;20617;-82
2023/07/08 10:00:34;;;;;;;5.93;3.45;;;27.80;99.90;;;;;;5026431;28;20631;-82
2023/07/08 10:03:08;;;;;;;6.00;3.65;;;27.90;99.90;;;;;;5031239;28;20381;-82
2023/07/08 10:05:38;;;;;;;5.63;3.10;;;27.90;99.90;;;;;;5016665;28;20041;-83
2023/07/08 10:08:19;;;;;;;3.58;3.25;;;28.10;99.90;;;;;;5017613;28;20042;-82
2023/07/08 10:11:01;;;;;;;4.70;3.10;;;28.20;99.90;;;;;;5014842;28;20068;-82
2023/07/08 10:13:38;;;;;;;4.68;3.20;;;28.40;99.90;;;;;;5019519;28;20041;-82
2023/07/08 10:16:32;;;;;;;6.28;3.42;;;28.40;99.90;;;;;;5023434;28;20067;-82
2023/07/08 10:18:58;;;;;;;4.32;3.22;;;28.30;99.90;;;;;;5013298;28;20049;-82
2023/07/08 10:21:51;;;;;;;6.07;3.22;;;28.40;66.80;;;;;;5022073;28;20503;-82
2023/07/08 10:24:33;;;;;;;5.63;3.40;;;28.70;92.70;;;;;;5035505;28;20041;-82
2023/07/08 10:27:34;;;;;;;5.38;3.22;;;28.70;28.00;;;;;;5046467;28;20527;-82
2023/07/08 10:30:05;;;;;;;6.43;3.15;;;28.70;1.00;;;;;;5045284;28;20103;-82
2023/07/08 10:32:52;;;;;;;6.40;3.40;;;28.80;1.00;;;;;;5025482;28;20191;-81
2023/07/08 10:35:24;;;;;;;6.18;3.47;;;29.00;1.00;;;;;;5036711;28;20076;-82
2023/07/08 10:37:59;;;;;;;3.45;2.88;;;29.10;26.20;;;;;;5021120;28;20046;-82
2023/07/08 10:40:53;;;;;;;5.32;2.97;;;29.10;1.00;;;;;;5023416;28;20428;-82
2023/07/08 10:43:33;;;;;;;4.65;3.30;;;29.20;1.00;;;;;;5023187;28;20064;-82
2023/07/08 10:46:16;;;;;;;5.72;3.58;;;29.50;1.00;;;;;;5020609;28;20405;-82
2023/07/08 10:48:51;;;;;;;10.57;4.05;;;29.30;1.00;;;;;;5039494;28;20044;-82
2023/07/08 10:51:45;;;;;;;5.60;3.45;;;29.60;1.00;;;;;;5023524;28;20087;-81
2023/07/08 10:54:36;;;;;;;4.22;3.35;;;29.50;1.00;;;;;;5018389;28;20458;-81
2023/07/08 10:57:17;;;;;;;4.32;3.10;;;29.80;1.00;;;;;;5024097;28;20040;-81
2023/07/08 10:59:48;;;;;;;4.07;3.55;;;30.00;1.00;;;;;;5031141;28;20059;-81
2023/07/08 11:02:38;;;;;;;4.90;3.63;;;29.90;1.00;;;;;;5051112;28;20548;-82
2023/07/08 11:05:43;;;;;;;5.70;3.50;;;30.00;99.90;;;;;;5049047;28;20114;-82
2023/07/08 11:08:34;;;;;;;4.07;3.35;;;30.20;1.00;;;;;;5030616;28;20041;-81
2023/07/08 11:11:19;;;;;;;5.60;3.47;;;30.30;99.90;;;;;;5021706;28;20059;-81
2023/07/08 11:13:53;;;;;;;5.07;3.38;;;30.50;99.90;;;;;;5026293;28;20034;-81
2023/07/08 11:16:25;;;;;;;6.20;3.65;;;30.40;99.90;;;;;;5049807;28;20037;-81
2023/07/08 11:18:51;;;;;;;4.85;3.50;;;30.70;99.90;;;;;;5005886;28;21008;-81
2023/07/08 11:21:43;;;;;;;4.10;3.22;;;30.70;99.90;;;;;;5026810;28;20041;-81
2023/07/08 11:24:37;;;;;;;5.22;3.55;;;30.40;99.90;;;;;;5023295;28;20148;-81
2023/07/08 11:27:10;;;;;;;7.32;3.60;;;30.60;99.90;;;;;;5022711;28;20032;-81
2023/07/08 11:30:13;;;;;;;4.65;3.30;;;30.70;99.90;;;;;;5049152;28;20045;-82
2023/07/08 11:32:45;;;;;;;5.00;3.60;;;30.80;99.90;;;;;;5018571;28;20036;-82
2023/07/08 11:35:23;;;;;;;5.00;3.50;;;31.00;99.90;;;;;;5015310;28;20091;-81
2023/07/08 11:37:49;;;;;;;5.43;3.60;;;31.30;99.90;;;;;;5049398;28;20259;-82
2023/07/08 11:40:23;;;;;;;4.35;3.50;;;31.30;99.90;;;;;;5018246;28;20093;-82
2023/07/08 11:42:52;;;;;;;5.13;3.60;;;31.40;99.90;;;;;;5055667;28;20084;-82
2023/07/08 11:45:18;;;;;;;4.10;3.28;;;31.40;99.90;;;;;;5019859;28;20467;-82
2023/07/08 11:47:48;;;;;;;4.85;3.72;;;31.50;99.90;;;;;;5026404;28;20048;-82
2023/07/08 11:50:30;;;;;;;5.85;3.83;;;31.50;99.90;;;;;;5017428;28;20084;-82
2023/07/08 11:53:00;;;;;;;5.30;3.30;;;31.50;99.90;;;;;;5038873;28;20049;-82
2023/07/08 11:55:44;;;;;;;10.52;3.42;;;31.60;99.90;;;;;;5005941;28;20246;-82
2023/07/08 11:58:21;;;;;;;3.55;3.00;;;31.70;99.90;;;;;;5020426;28;20069;-82
2023/07/08 12:00:59;;;;;;;6.20;3.58;;;31.90;99.90;;;;;;5047753;28;20199;-82
2023/07/08 12:03:37;;;;;;;4.60;3.08;;;32.00;99.90;;;;;;5033009;28;20071;-82
2023/07/08 12:06:23;;;;;;;5.70;3.20;;;31.80;99.90;;;;;;5021959;28;20068;-82
2023/07/08 12:08:51;;;;;;;4.35;3.22;;;32.00;99.90;;;;;;5016616;28;20136;-82
2023/07/08 12:11:17;;;;;;;7.78;3.05;;;32.40;99.90;;;;;;5016254;28;20037;-82
2023/07/08 12:13:43;;;;;;;6.55;3.70;;;32.40;99.90;;;;;;5026372;28;20383;-83
2023/07/08 12:16:12;;;;;;;6.35;3.83;;;32.40;99.90;;;;;;5024173;28;20025;-83
2023/07/08 12:18:45;;;;;;;4.53;3.83;;;32.10;99.90;;;;;;5021813;28;20095;-84
2023/07/08 12:21:12;;;;;;;6.72;3.20;;;32.20;99.90;;;;;;5018753;28;20095;-84
2023/07/08 12:23:45;;;;;;;5.90;3.30;;;32.20;99.90;;;;;;5021716;28;20116;-83
2023/07/08 12:26:11;;;;;;;4.07;3.10;;;32.80;99.90;;;;;;5024654;28;20282;-83
2023/07/08 12:28:38;;;;;;;5.97;3.13;;;32.60;99.90;;;;;;5020926;28;20040;-84
2023/07/08 12:31:16;;;;;;;4.40;3.50;;;33.00;99.90;;;;;;5005905;28;20041;-83
2023/07/08 12:33:43;;;;;;;4.50;3.42;;;33.00;99.90;;;;;;5015619;28;20112;-83
2023/07/08 12:36:12;;;;;;;3.85;3.38;;;33.30;99.90;;;;;;5031911;28;20074;-84
2023/07/08 12:38:43;;;;;;;7.85;3.47;;;33.30;99.90;;;;;;5001893;28;20059;-84
2023/07/08 12:41:12;;;;;;;5.53;3.47;;;33.40;99.90;;;;;;5022340;28;20239;-84
2023/07/08 12:43:38;;;;;;;10.45;3.80;;;33.40;99.90;;;;;;5007171;28;20041;-83
2023/07/08 12:46:04;;;;;;;5.45;3.63;;;33.40;99.90;;;;;;5018512;28;20506;-83
2023/07/08 12:48:34;;;;;;;4.80;3.20;;;33.40;99.90;;;;;;5000386;28;20274;-84
2023/07/08 12:50:59;;;;;;;4.72;3.13;;;33.50;99.90;;;;;;5005377;28;20041;-84
2023/07/08 12:53:26;;;;;;;6.13;3.33;;;33.70;99.90;;;;;;5018062;28;20516;-83
2023/07/08 12:55:54;;;;;;;4.88;3.30;;;33.80;99.90;;;;;;5034946;28;20047;-83
2023/07/08 12:58:25;;;;;;;6.88;3.53;;;33.80;99.90;;;;;;5017721;28;20401;-84
2023/07/08 13:00:52;;;;;;;8.88;3.35;;;34.00;99.90;;;;;;5037768;28;20065;-83